sensor_id;sensor_type;location;lat;lon;timestamp;temperature;humidity
41469;DHT22;27206;47.032;15.484;2023-02-28T00:01:17;0.90;99.90
41469;DHT22;27206;47.032;15.484;2023-02-28T00:03:42;1.00;99.90
41469;DHT22;27206;47.032;15.484;2023-02-28T00:06:08;1.10;99.90
41469;DHT22;27206;47.032;15.484;2023-02-28T00:08:35;1.10;99.90
41469;DHT22;27206;47.032;15.484;2023-02-28T00:11:06;1.00;99.90
41469;DHT22;27206;47.032;15.484;2023-02-28T00:13:34;1.00;99.90
41469;DHT22;27206;47.032;15.484;2023-02-28T00:16:02;1.10;99.90
41469;DHT22;27206;47.032;15.484;2023-02-28T00:18:28;1.00;99.90
41469;DHT22;27206;47.032;15.484;2023-02-28T00:20:54;1.10;99.90
41469;DHT22;27206;47.032;15.484;2023-02-28T00:23:20;1.10;99.90
41469;DHT22;27206;47.032;15.484;2023-02-28T00:25:45;1.00;99.90
41469;DHT22;27206;47.032;15.484;2023-02-28T00:28:11;1.00;99.90
41469;DHT22;27206;47.032;15.484;2023-02-28T00:30:37;1.10;99.90
41469;DHT22;27206;47.032;15.484;2023-02-28T00:33:02;1.00;99.90
41469;DHT22;27206;47.032;15.484;2023-02-28T00:35:28;1.10;99.90
41469;DHT22;27206;47.032;15.484;2023-02-28T00:37:53;1.00;99.90
41469;DHT22;27206;47.032;15.484;2023-02-28T00:40:19;1.00;99.90
41469;DHT22;27206;47.032;15.484;2023-02-28T00:42:44;1.00;99.90
41469;DHT22;27206;47.032;15.484;2023-02-28T00:45:10;1.00;99.90
41469;DHT22;27206;47.032;15.484;2023-02-28T00:47:36;1.00;99.90
41469;DHT22;27206;47.032;15.484;2023-02-28T00:50:02;1.00;99.90
41469;DHT22;27206;47.032;15.484;2023-02-28T00:52:27;0.90;99.90
41469;DHT22;27206;47.032;15.484;2023-02-28T00:54:53;0.90;99.90
41469;DHT22;27206;47.032;15.484;2023-02-28T00:57:19;0.90;99.90
41469;DHT22;27206;47.032;15.484;2023-02-28T00:59:44;0.90;99.90
41469;DHT22;27206;47.032;15.484;2023-02-28T01:02:10;0.90;99.90
41469;DHT22;27206;47.032;15.484;2023-02-28T01:04:36;0.90;99.90
41469;DHT22;27206;47.032;15.484;2023-02-28T01:07:02;1.00;99.90
41469;DHT22;27206;47.032;15.484;2023-02-28T01:09:27;0.90;99.90
41469;DHT22;27206;47.032;15.484;2023-02-28T01:11:53;1.00;99.90
41469;DHT22;27206;47.032;15.484;2023-02-28T01:14:18;0.90;99.90
41469;DHT22;27206;47.032;15.484;2023-02-28T01:16:44;0.80;99.90
41469;DHT22;27206;47.032;15.484;2023-02-28T01:19:10;1.00;99.90
41469;DHT22;27206;47.032;15.484;2023-02-28T01:21:36;0.90;99.90
41469;DHT22;27206;47.032;15.484;2023-02-28T01:24:02;0.80;99.90
41469;DHT22;27206;47.032;15.484;2023-02-28T01:26:28;0.80;99.90
41469;DHT22;27206;47.032;15.484;2023-02-28T01:28:54;0.80;99.90
41469;DHT22;27206;47.032;15.484;2023-02-28T01:31:21;0.90;99.90
41469;DHT22;27206;47.032;15.484;2023-02-28T01:33:46;0.90;99.90
41469;DHT22;27206;47.032;15.484;2023-02-28T01:36:19;0.80;99.90
41469;DHT22;27206;47.032;15.484;2023-02-28T01:38:46;0.80;99.90
41469;DHT22;27206;47.032;15.484;2023-02-28T01:41:18;0.70;99.90
41469;DHT22;27206;47.032;15.484;2023-02-28T01:46:10;0.90;99.90
41469;DHT22;27206;47.032;15.484;2023-02-28T01:48:50;0.90;99.90
41469;DHT22;27206;47.032;15.484;2023-02-28T01:51:37;0.90;99.90
41469;DHT22;27206;47.032;15.484;2023-02-28T01:54:09;1.00;99.90
41469;DHT22;27206;47.032;15.484;2023-02-28T01:56:43;1.00;99.90
41469;DHT22;27206;47.032;15.484;2023-02-28T01:59:13;1.00;99.90
41469;DHT22;27206;47.032;15.484;2023-02-28T02:01:40;0.90;99.90
41469;DHT22;27206;47.032;15.484;2023-02-28T02:04:06;1.00;99.90
41469;DHT22;27206;47.032;15.484;2023-02-28T02:06:43;0.90;99.90
41469;DHT22;27206;47.032;15.484;2023-02-28T02:09:09;0.90;99.90
41469;DHT22;27206;47.032;15.484;2023-02-28T02:11:36;1.00;99.90
41469;DHT22;27206;47.032;15.484;2023-02-28T02:25:45;1.00;99.90
41469;DHT22;27206;47.032;15.484;2023-02-28T02:36:45;0.80;99.90
41469;DHT22;27206;47.032;15.484;2023-02-28T02:39:29;0.80;99.90
41469;DHT22;27206;47.032;15.484;2023-02-28T02:42:00;0.90;99.90
41469;DHT22;27206;47.032;15.484;2023-02-28T02:44:31;1.00;99.90
41469;DHT22;27206;47.032;15.484;2023-02-28T02:47:09;1.00;99.90
41469;DHT22;27206;47.032;15.484;2023-02-28T02:49:38;1.10;99.90
41469;DHT22;27206;47.032;15.484;2023-02-28T02:52:08;1.00;99.90
41469;DHT22;27206;47.032;15.484;2023-02-28T02:54:38;1.00;99.90
41469;DHT22;27206;47.032;15.484;2023-02-28T02:57:08;1.00;99.90
41469;DHT22;27206;47.032;15.484;2023-02-28T02:59:38;1.10;99.90
41469;DHT22;27206;47.032;15.484;2023-02-28T03:02:06;1.10;99.90
41469;DHT22;27206;47.032;15.484;2023-02-28T03:04:42;1.00;99.90
41469;DHT22;27206;47.032;15.484;2023-02-28T03:07:09;1.00;99.90
41469;DHT22;27206;47.032;15.484;2023-02-28T03:09:35;1.00;99.90
41469;DHT22;27206;47.032;15.484;2023-02-28T03:12:06;1.10;99.90
41469;DHT22;27206;47.032;15.484;2023-02-28T03:25:22;1.00;99.90
41469;DHT22;27206;47.032;15.484;2023-02-28T03:30:50;1.00;99.90
41469;DHT22;27206;47.032;15.484;2023-02-28T03:33:43;1.00;99.90
41469;DHT22;27206;47.032;15.484;2023-02-28T03:36:12;1.00;99.90
41469;DHT22;27206;47.032;15.484;2023-02-28T03:38:45;1.10;99.90
41469;DHT22;27206;47.032;15.484;2023-02-28T03:41:19;1.00;99.90
41469;DHT22;27206;47.032;15.484;2023-02-28T03:43:59;0.90;99.90
41469;DHT22;27206;47.032;15.484;2023-02-28T03:46:30;0.90;99.90
41469;DHT22;27206;47.032;15.484;2023-02-28T03:49:09;1.00;99.90
41469;DHT22;27206;47.032;15.484;2023-02-28T03:51:38;1.00;99.90
41469;DHT22;27206;47.032;15.484;2023-02-28T03:54:27;1.00;99.90
41469;DHT22;27206;47.032;15.484;2023-02-28T03:59:59;1.10;99.90
41469;DHT22;27206;47.032;15.484;2023-02-28T04:02:29;1.00;99.90
41469;DHT22;27206;47.032;15.484;2023-02-28T04:04:55;1.10;99.90
41469;DHT22;27206;47.032;15.484;2023-02-28T04:07:21;1.00;99.90
41469;DHT22;27206;47.032;15.484;2023-02-28T04:09:46;1.10;99.90
41469;DHT22;27206;47.032;15.484;2023-02-28T04:12:12;1.10;99.90
41469;DHT22;27206;47.032;15.484;2023-02-28T04:14:38;1.00;99.90
41469;DHT22;27206;47.032;15.484;2023-02-28T04:17:03;1.00;99.90
41469;DHT22;27206;47.032;15.484;2023-02-28T04:19:29;1.00;99.90
41469;DHT22;27206;47.032;15.484;2023-02-28T04:21:55;1.00;99.90
41469;DHT22;27206;47.032;15.484;2023-02-28T04:24:25;1.10;99.90
41469;DHT22;27206;47.032;15.484;2023-02-28T04:26:52;1.10;99.90
41469;DHT22;27206;47.032;15.484;2023-02-28T04:29:24;1.10;99.90
41469;DHT22;27206;47.032;15.484;2023-02-28T04:31:50;1.10;99.90
41469;DHT22;27206;47.032;15.484;2023-02-28T04:34:18;1.00;99.90
41469;DHT22;27206;47.032;15.484;2023-02-28T04:36:44;1.00;99.90
41469;DHT22;27206;47.032;15.484;2023-02-28T04:39:11;1.10;99.90
41469;DHT22;27206;47.032;15.484;2023-02-28T04:41:37;1.00;99.90
41469;DHT22;27206;47.032;15.484;2023-02-28T04:44:03;1.00;99.90
41469;DHT22;27206;47.032;15.484;2023-02-28T04:46:29;1.00;99.90
41469;DHT22;27206;47.032;15.484;2023-02-28T04:48:56;1.00;99.90
41469;DHT22;27206;47.032;15.484;2023-02-28T04:51:24;1.00;99.90
41469;DHT22;27206;47.032;15.484;2023-02-28T04:53:50;1.00;99.90
41469;DHT22;27206;47.032;15.484;2023-02-28T04:56:17;1.00;99.90
41469;DHT22;27206;47.032;15.484;2023-02-28T04:58:43;1.00;99.90
41469;DHT22;27206;47.032;15.484;2023-02-28T05:01:25;1.10;99.90
41469;DHT22;27206;47.032;15.484;2023-02-28T05:03:52;1.00;99.90
41469;DHT22;27206;47.032;15.484;2023-02-28T05:06:19;1.00;99.90
41469;DHT22;27206;47.032;15.484;2023-02-28T05:08:46;0.90;99.90
41469;DHT22;27206;47.032;15.484;2023-02-28T05:11:20;0.80;99.90
41469;DHT22;27206;47.032;15.484;2023-02-28T05:13:47;0.80;99.90
41469;DHT22;27206;47.032;15.484;2023-02-28T05:16:13;0.80;99.90
41469;DHT22;27206;47.032;15.484;2023-02-28T05:18:39;0.80;99.90
41469;DHT22;27206;47.032;15.484;2023-02-28T05:21:05;0.60;99.90
41469;DHT22;27206;47.032;15.484;2023-02-28T05:23:31;0.70;99.90
41469;DHT22;27206;47.032;15.484;2023-02-28T05:25:56;0.80;99.90
41469;DHT22;27206;47.032;15.484;2023-02-28T05:28:22;0.60;99.90
41469;DHT22;27206;47.032;15.484;2023-02-28T05:30:48;0.70;99.90
41469;DHT22;27206;47.032;15.484;2023-02-28T05:33:13;0.80;99.90
41469;DHT22;27206;47.032;15.484;2023-02-28T05:35:40;0.80;99.90
41469;DHT22;27206;47.032;15.484;2023-02-28T05:38:08;0.80;99.90
41469;DHT22;27206;47.032;15.484;2023-02-28T05:40:34;0.80;99.90
41469;DHT22;27206;47.032;15.484;2023-02-28T05:43:00;0.80;99.90
41469;DHT22;27206;47.032;15.484;2023-02-28T05:45:25;0.80;99.90
41469;DHT22;27206;47.032;15.484;2023-02-28T05:47:54;0.80;99.90
41469;DHT22;27206;47.032;15.484;2023-02-28T05:50:20;0.80;99.90
41469;DHT22;27206;47.032;15.484;2023-02-28T05:52:52;0.80;99.90
41469;DHT22;27206;47.032;15.484;2023-02-28T05:55:18;0.80;99.90
41469;DHT22;27206;47.032;15.484;2023-02-28T05:57:44;0.70;99.90
41469;DHT22;27206;47.032;15.484;2023-02-28T06:00:11;0.80;99.90
41469;DHT22;27206;47.032;15.484;2023-02-28T06:02:38;0.80;99.90
41469;DHT22;27206;47.032;15.484;2023-02-28T06:05:05;0.90;99.90
41469;DHT22;27206;47.032;15.484;2023-02-28T06:07:31;0.90;99.90
41469;DHT22;27206;47.032;15.484;2023-02-28T06:09:57;1.00;99.90
41469;DHT22;27206;47.032;15.484;2023-02-28T06:12:22;1.00;99.90
41469;DHT22;27206;47.032;15.484;2023-02-28T06:14:48;0.90;99.90
41469;DHT22;27206;47.032;15.484;2023-02-28T06:17:13;0.70;99.90
41469;DHT22;27206;47.032;15.484;2023-02-28T06:19:39;0.80;99.90
41469;DHT22;27206;47.032;15.484;2023-02-28T06:22:06;0.70;99.90
41469;DHT22;27206;47.032;15.484;2023-02-28T06:24:32;0.80;99.90
41469;DHT22;27206;47.032;15.484;2023-02-28T06:26:58;1.00;99.90
41469;DHT22;27206;47.032;15.484;2023-02-28T06:29:33;1.00;99.90
41469;DHT22;27206;47.032;15.484;2023-02-28T06:31:58;0.90;99.90
41469;DHT22;27206;47.032;15.484;2023-02-28T06:34:24;1.00;99.90
41469;DHT22;27206;47.032;15.484;2023-02-28T06:36:50;1.00;99.90
41469;DHT22;27206;47.032;15.484;2023-02-28T06:39:17;1.00;99.90
41469;DHT22;27206;47.032;15.484;2023-02-28T06:41:43;1.00;99.90
41469;DHT22;27206;47.032;15.484;2023-02-28T06:44:15;0.90;99.90
41469;DHT22;27206;47.032;15.484;2023-02-28T06:46:44;1.00;99.90
41469;DHT22;27206;47.032;15.484;2023-02-28T06:49:11;1.00;99.90
41469;DHT22;27206;47.032;15.484;2023-02-28T06:51:38;1.00;99.90
41469;DHT22;27206;47.032;15.484;2023-02-28T06:54:04;1.00;99.90
41469;DHT22;27206;47.032;15.484;2023-02-28T06:56:30;1.10;99.90
41469;DHT22;27206;47.032;15.484;2023-02-28T06:58:56;1.10;99.90
41469;DHT22;27206;47.032;15.484;2023-02-28T07:01:23;1.10;99.90
41469;DHT22;27206;47.032;15.484;2023-02-28T07:03:49;1.10;99.90
41469;DHT22;27206;47.032;15.484;2023-02-28T07:06:21;1.20;99.90
41469;DHT22;27206;47.032;15.484;2023-02-28T07:08:52;1.20;99.90
41469;DHT22;27206;47.032;15.484;2023-02-28T07:11:23;1.10;99.90
41469;DHT22;27206;47.032;15.484;2023-02-28T07:13:54;1.20;99.90
41469;DHT22;27206;47.032;15.484;2023-02-28T07:16:21;1.10;99.90
41469;DHT22;27206;47.032;15.484;2023-02-28T07:18:47;1.20;99.90
41469;DHT22;27206;47.032;15.484;2023-02-28T07:21:13;1.20;99.90
41469;DHT22;27206;47.032;15.484;2023-02-28T07:23:39;1.20;99.90
41469;DHT22;27206;47.032;15.484;2023-02-28T07:26:06;1.20;99.90
41469;DHT22;27206;47.032;15.484;2023-02-28T07:28:32;1.30;99.90
41469;DHT22;27206;47.032;15.484;2023-02-28T07:31:04;1.30;99.90
41469;DHT22;27206;47.032;15.484;2023-02-28T07:33:30;1.20;99.90
41469;DHT22;27206;47.032;15.484;2023-02-28T07:36:04;1.20;99.90
41469;DHT22;27206;47.032;15.484;2023-02-28T07:38:32;1.20;99.90
41469;DHT22;27206;47.032;15.484;2023-02-28T07:40:58;1.20;99.90
41469;DHT22;27206;47.032;15.484;2023-02-28T07:43:24;1.20;99.90
41469;DHT22;27206;47.032;15.484;2023-02-28T07:45:49;1.30;99.90
41469;DHT22;27206;47.032;15.484;2023-02-28T07:48:15;1.30;99.90
41469;DHT22;27206;47.032;15.484;2023-02-28T07:50:41;1.30;99.90
41469;DHT22;27206;47.032;15.484;2023-02-28T07:53:07;1.40;99.90
41469;DHT22;27206;47.032;15.484;2023-02-28T07:55:32;1.40;99.90
41469;DHT22;27206;47.032;15.484;2023-02-28T07:57:58;1.40;99.90
41469;DHT22;27206;47.032;15.484;2023-02-28T08:00:24;1.40;99.90
41469;DHT22;27206;47.032;15.484;2023-02-28T08:02:50;1.50;99.90
41469;DHT22;27206;47.032;15.484;2023-02-28T08:05:16;1.50;99.90
41469;DHT22;27206;47.032;15.484;2023-02-28T08:07:42;1.50;99.90
41469;DHT22;27206;47.032;15.484;2023-02-28T08:10:08;1.50;99.90
41469;DHT22;27206;47.032;15.484;2023-02-28T08:12:35;1.50;99.90
41469;DHT22;27206;47.032;15.484;2023-02-28T08:15:01;1.60;99.90
41469;DHT22;27206;47.032;15.484;2023-02-28T08:17:26;1.70;99.90
41469;DHT22;27206;47.032;15.484;2023-02-28T08:19:52;1.70;99.90
41469;DHT22;27206;47.032;15.484;2023-02-28T08:22:17;1.80;99.90
41469;DHT22;27206;47.032;15.484;2023-02-28T08:24:45;1.70;99.90
41469;DHT22;27206;47.032;15.484;2023-02-28T08:27:11;1.80;99.90
41469;DHT22;27206;47.032;15.484;2023-02-28T08:29:37;1.80;99.90
41469;DHT22;27206;47.032;15.484;2023-02-28T08:32:04;1.90;99.90
41469;DHT22;27206;47.032;15.484;2023-02-28T08:34:30;2.00;99.90
41469;DHT22;27206;47.032;15.484;2023-02-28T08:36:55;2.10;99.90
41469;DHT22;27206;47.032;15.484;2023-02-28T08:39:21;1.90;99.90
41469;DHT22;27206;47.032;15.484;2023-02-28T08:41:47;2.00;99.90
41469;DHT22;27206;47.032;15.484;2023-02-28T08:44:12;2.00;99.90
41469;DHT22;27206;47.032;15.484;2023-02-28T08:46:38;2.00;99.90
41469;DHT22;27206;47.032;15.484;2023-02-28T08:49:04;2.00;99.90
41469;DHT22;27206;47.032;15.484;2023-02-28T08:51:30;1.80;99.90
41469;DHT22;27206;47.032;15.484;2023-02-28T08:53:58;1.90;99.90
41469;DHT22;27206;47.032;15.484;2023-02-28T08:56:26;1.70;99.90
41469;DHT22;27206;47.032;15.484;2023-02-28T08:58:53;1.90;99.90
41469;DHT22;27206;47.032;15.484;2023-02-28T09:01:23;2.10;99.90
41469;DHT22;27206;47.032;15.484;2023-02-28T09:03:50;2.10;99.90
41469;DHT22;27206;47.032;15.484;2023-02-28T09:06:17;2.10;99.90
41469;DHT22;27206;47.032;15.484;2023-02-28T09:08:43;2.00;99.90
41469;DHT22;27206;47.032;15.484;2023-02-28T09:11:10;2.10;99.90
41469;DHT22;27206;47.032;15.484;2023-02-28T09:13:36;2.10;99.90
41469;DHT22;27206;47.032;15.484;2023-02-28T09:16:06;2.20;99.90
41469;DHT22;27206;47.032;15.484;2023-02-28T09:18:34;2.10;99.90
41469;DHT22;27206;47.032;15.484;2023-02-28T09:21:04;2.30;99.90
41469;DHT22;27206;47.032;15.484;2023-02-28T09:23:30;2.30;99.90
41469;DHT22;27206;47.032;15.484;2023-02-28T09:25:56;2.30;99.90
41469;DHT22;27206;47.032;15.484;2023-02-28T09:28:22;2.50;99.90
41469;DHT22;27206;47.032;15.484;2023-02-28T09:30:50;2.50;99.90
41469;DHT22;27206;47.032;15.484;2023-02-28T09:33:17;2.60;99.90
41469;DHT22;27206;47.032;15.484;2023-02-28T09:35:46;2.30;99.90
41469;DHT22;27206;47.032;15.484;2023-02-28T09:38:12;2.10;99.90
41469;DHT22;27206;47.032;15.484;2023-02-28T09:40:48;2.10;99.90
41469;DHT22;27206;47.032;15.484;2023-02-28T09:43:16;2.20;99.90
41469;DHT22;27206;47.032;15.484;2023-02-28T09:45:48;2.50;99.90
41469;DHT22;27206;47.032;15.484;2023-02-28T09:48:24;2.50;99.90
41469;DHT22;27206;47.032;15.484;2023-02-28T09:51:04;2.50;99.90
41469;DHT22;27206;47.032;15.484;2023-02-28T09:53:33;2.60;99.90
41469;DHT22;27206;47.032;15.484;2023-02-28T09:56:18;2.60;99.90
41469;DHT22;27206;47.032;15.484;2023-02-28T09:58:55;2.50;99.90
41469;DHT22;27206;47.032;15.484;2023-02-28T10:01:31;2.60;99.90
41469;DHT22;27206;47.032;15.484;2023-02-28T10:04:10;2.80;99.90
41469;DHT22;27206;47.032;15.484;2023-02-28T10:06:50;3.00;99.90
41469;DHT22;27206;47.032;15.484;2023-02-28T10:09:23;2.90;99.90
41469;DHT22;27206;47.032;15.484;2023-02-28T10:11:54;2.90;99.90
41469;DHT22;27206;47.032;15.484;2023-02-28T10:14:24;2.70;99.90
41469;DHT22;27206;47.032;15.484;2023-02-28T10:16:59;2.70;99.90
41469;DHT22;27206;47.032;15.484;2023-02-28T10:19:34;2.70;99.90
41469;DHT22;27206;47.032;15.484;2023-02-28T10:22:05;2.90;99.90
41469;DHT22;27206;47.032;15.484;2023-02-28T10:24:47;3.40;99.90
41469;DHT22;27206;47.032;15.484;2023-02-28T10:27:21;3.00;99.90
41469;DHT22;27206;47.032;15.484;2023-02-28T10:29:49;2.90;99.90
41469;DHT22;27206;47.032;15.484;2023-02-28T10:32:18;2.90;99.90
41469;DHT22;27206;47.032;15.484;2023-02-28T10:34:50;2.80;99.90
41469;DHT22;27206;47.032;15.484;2023-02-28T10:37:16;3.10;99.90
41469;DHT22;27206;47.032;15.484;2023-02-28T10:39:46;2.90;99.90
41469;DHT22;27206;47.032;15.484;2023-02-28T10:44:45;3.40;99.90
41469;DHT22;27206;47.032;15.484;2023-02-28T10:47:17;3.70;99.90
41469;DHT22;27206;47.032;15.484;2023-02-28T10:49:49;3.90;99.90
41469;DHT22;27206;47.032;15.484;2023-02-28T10:52:33;3.90;99.90
41469;DHT22;27206;47.032;15.484;2023-02-28T10:55:20;3.90;99.90
41469;DHT22;27206;47.032;15.484;2023-02-28T10:57:47;3.60;99.90
41469;DHT22;27206;47.032;15.484;2023-02-28T11:00:19;3.50;99.90
41469;DHT22;27206;47.032;15.484;2023-02-28T11:02:46;3.20;99.90
41469;DHT22;27206;47.032;15.484;2023-02-28T11:05:33;3.50;99.90
41469;DHT22;27206;47.032;15.484;2023-02-28T11:08:06;3.60;99.90
41469;DHT22;27206;47.032;15.484;2023-02-28T11:10:36;3.50;99.90
41469;DHT22;27206;47.032;15.484;2023-02-28T11:13:02;3.80;99.90
41469;DHT22;27206;47.032;15.484;2023-02-28T11:15:35;3.90;99.90
41469;DHT22;27206;47.032;15.484;2023-02-28T11:20:33;4.70;99.90
41469;DHT22;27206;47.032;15.484;2023-02-28T11:23:02;5.00;99.90
41469;DHT22;27206;47.032;15.484;2023-02-28T11:25:37;4.80;99.90
41469;DHT22;27206;47.032;15.484;2023-02-28T11:31:15;4.70;99.90
41469;DHT22;27206;47.032;15.484;2023-02-28T11:33:54;4.40;99.90
41469;DHT22;27206;47.032;15.484;2023-02-28T11:36:25;4.70;99.90
41469;DHT22;27206;47.032;15.484;2023-02-28T11:39:08;5.10;99.90
41469;DHT22;27206;47.032;15.484;2023-02-28T11:42:09;5.20;99.90
41469;DHT22;27206;47.032;15.484;2023-02-28T11:44:45;4.90;99.90
41469;DHT22;27206;47.032;15.484;2023-02-28T12:07:05;5.20;99.90
41469;DHT22;27206;47.032;15.484;2023-02-28T12:20:13;4.80;99.90
41469;DHT22;27206;47.032;15.484;2023-02-28T12:28:40;5.20;99.90
41469;DHT22;27206;47.032;15.484;2023-02-28T12:31:20;5.00;99.90
41469;DHT22;27206;47.032;15.484;2023-02-28T12:34:03;5.20;99.90
41469;DHT22;27206;47.032;15.484;2023-02-28T12:36:30;5.30;99.90
41469;DHT22;27206;47.032;15.484;2023-02-28T12:44:17;5.70;99.90
41469;DHT22;27206;47.032;15.484;2023-02-28T12:46:49;5.70;99.90
41469;DHT22;27206;47.032;15.484;2023-02-28T12:49:30;5.70;99.90
41469;DHT22;27206;47.032;15.484;2023-02-28T12:51:59;5.40;99.90
41469;DHT22;27206;47.032;15.484;2023-02-28T12:57:43;5.80;99.90
41469;DHT22;27206;47.032;15.484;2023-02-28T13:00:16;6.00;99.90
41469;DHT22;27206;47.032;15.484;2023-02-28T13:10:48;6.20;99.90
41469;DHT22;27206;47.032;15.484;2023-02-28T13:13:22;5.90;99.90
41469;DHT22;27206;47.032;15.484;2023-02-28T13:16:00;6.10;99.90
41469;DHT22;27206;47.032;15.484;2023-02-28T13:21:10;6.10;99.90
41469;DHT22;27206;47.032;15.484;2023-02-28T13:29:21;6.20;99.90
41469;DHT22;27206;47.032;15.484;2023-02-28T13:35:34;6.10;99.90
41469;DHT22;27206;47.032;15.484;2023-02-28T13:39:55;6.00;99.90
41469;DHT22;27206;47.032;15.484;2023-02-28T13:47:54;6.50;99.90
41469;DHT22;27206;47.032;15.484;2023-02-28T13:55:50;8.30;99.90
41469;DHT22;27206;47.032;15.484;2023-02-28T14:01:27;9.00;99.90
41469;DHT22;27206;47.032;15.484;2023-02-28T14:04:11;8.80;99.90
41469;DHT22;27206;47.032;15.484;2023-02-28T14:06:48;8.60;99.90
41469;DHT22;27206;47.032;15.484;2023-02-28T14:09:24;9.30;99.90
41469;DHT22;27206;47.032;15.484;2023-02-28T14:11:51;9.30;99.90
41469;DHT22;27206;47.032;15.484;2023-02-28T14:17:23;9.20;99.90
41469;DHT22;27206;47.032;15.484;2023-02-28T14:19:48;9.30;99.90
41469;DHT22;27206;47.032;15.484;2023-02-28T14:25:09;9.60;99.90
41469;DHT22;27206;47.032;15.484;2023-02-28T14:27:56;9.00;99.90
41469;DHT22;27206;47.032;15.484;2023-02-28T14:41:34;8.80;99.90
41469;DHT22;27206;47.032;15.484;2023-02-28T14:44:19;9.50;99.90
41469;DHT22;27206;47.032;15.484;2023-02-28T14:46:46;9.80;99.90
41469;DHT22;27206;47.032;15.484;2023-02-28T14:51:44;9.10;99.90
41469;DHT22;27206;47.032;15.484;2023-02-28T14:54:15;8.70;99.90
41469;DHT22;27206;47.032;15.484;2023-02-28T14:56:41;8.50;99.90
41469;DHT22;27206;47.032;15.484;2023-02-28T14:59:32;9.60;99.90
41469;DHT22;27206;47.032;15.484;2023-02-28T15:02:21;9.80;99.90
41469;DHT22;27206;47.032;15.484;2023-02-28T15:04:55;8.80;99.90
41469;DHT22;27206;47.032;15.484;2023-02-28T15:07:21;8.60;99.90
41469;DHT22;27206;47.032;15.484;2023-02-28T15:10:20;8.40;99.90
41469;DHT22;27206;47.032;15.484;2023-02-28T15:15:19;8.10;99.90
41469;DHT22;27206;47.032;15.484;2023-02-28T15:17:51;8.80;99.90
41469;DHT22;27206;47.032;15.484;2023-02-28T15:20:19;8.60;99.90
41469;DHT22;27206;47.032;15.484;2023-02-28T15:22:46;8.80;99.90
41469;DHT22;27206;47.032;15.484;2023-02-28T15:25:15;8.80;99.90
41469;DHT22;27206;47.032;15.484;2023-02-28T15:27:49;8.40;99.90
41469;DHT22;27206;47.032;15.484;2023-02-28T15:30:18;7.90;99.90
41469;DHT22;27206;47.032;15.484;2023-02-28T15:32:45;8.60;99.90
41469;DHT22;27206;47.032;15.484;2023-02-28T15:37:56;8.10;99.90
41469;DHT22;27206;47.032;15.484;2023-02-28T15:40:23;7.80;99.90
41469;DHT22;27206;47.032;15.484;2023-02-28T15:43:18;7.50;99.90
41469;DHT22;27206;47.032;15.484;2023-02-28T15:45:47;7.40;99.90
41469;DHT22;27206;47.032;15.484;2023-02-28T15:48:24;7.10;99.90
41469;DHT22;27206;47.032;15.484;2023-02-28T15:50:54;6.70;99.90
41469;DHT22;27206;47.032;15.484;2023-02-28T15:53:27;6.80;99.90
41469;DHT22;27206;47.032;15.484;2023-02-28T15:56:05;6.70;99.90
41469;DHT22;27206;47.032;15.484;2023-02-28T15:58:33;6.50;99.90
41469;DHT22;27206;47.032;15.484;2023-02-28T16:01:30;6.40;99.90
41469;DHT22;27206;47.032;15.484;2023-02-28T16:04:18;6.50;99.90
41469;DHT22;27206;47.032;15.484;2023-02-28T16:09:26;6.50;99.90
41469;DHT22;27206;47.032;15.484;2023-02-28T16:11:55;6.50;99.90
41469;DHT22;27206;47.032;15.484;2023-02-28T16:14:25;6.10;99.90
41469;DHT22;27206;47.032;15.484;2023-02-28T16:17:06;5.70;99.90
41469;DHT22;27206;47.032;15.484;2023-02-28T16:19:32;5.80;99.90
41469;DHT22;27206;47.032;15.484;2023-02-28T16:21:58;5.60;99.90
41469;DHT22;27206;47.032;15.484;2023-02-28T16:24:23;5.40;99.90
41469;DHT22;27206;47.032;15.484;2023-02-28T16:26:51;5.20;99.90
41469;DHT22;27206;47.032;15.484;2023-02-28T16:29:31;5.10;99.90
41469;DHT22;27206;47.032;15.484;2023-02-28T16:31:57;5.00;99.90
41469;DHT22;27206;47.032;15.484;2023-02-28T16:34:24;4.90;99.90
41469;DHT22;27206;47.032;15.484;2023-02-28T16:36:50;4.80;99.90
41469;DHT22;27206;47.032;15.484;2023-02-28T16:39:16;4.80;99.90
41469;DHT22;27206;47.032;15.484;2023-02-28T16:41:44;4.70;99.90
41469;DHT22;27206;47.032;15.484;2023-02-28T16:44:14;4.60;99.90
41469;DHT22;27206;47.032;15.484;2023-02-28T16:46:43;4.60;99.90
41469;DHT22;27206;47.032;15.484;2023-02-28T16:49:12;4.60;99.90
41469;DHT22;27206;47.032;15.484;2023-02-28T16:51:38;4.50;99.90
41469;DHT22;27206;47.032;15.484;2023-02-28T16:54:04;4.50;99.90
41469;DHT22;27206;47.032;15.484;2023-02-28T16:56:30;4.30;99.90
41469;DHT22;27206;47.032;15.484;2023-02-28T16:58:59;4.30;99.90
41469;DHT22;27206;47.032;15.484;2023-02-28T17:01:25;4.30;99.90
41469;DHT22;27206;47.032;15.484;2023-02-28T17:03:52;4.30;99.90
41469;DHT22;27206;47.032;15.484;2023-02-28T17:06:24;4.40;99.90
41469;DHT22;27206;47.032;15.484;2023-02-28T17:08:51;4.40;99.90
41469;DHT22;27206;47.032;15.484;2023-02-28T17:11:17;4.30;99.90
41469;DHT22;27206;47.032;15.484;2023-02-28T17:13:43;4.10;99.90
41469;DHT22;27206;47.032;15.484;2023-02-28T17:16:17;4.20;99.90
41469;DHT22;27206;47.032;15.484;2023-02-28T17:18:45;4.10;99.90
41469;DHT22;27206;47.032;15.484;2023-02-28T17:21:14;4.10;99.90
41469;DHT22;27206;47.032;15.484;2023-02-28T17:23:40;4.10;99.90
41469;DHT22;27206;47.032;15.484;2023-02-28T17:26:05;4.00;99.90
41469;DHT22;27206;47.032;15.484;2023-02-28T17:28:32;4.10;99.90
41469;DHT22;27206;47.032;15.484;2023-02-28T17:30:58;4.10;99.90
41469;DHT22;27206;47.032;15.484;2023-02-28T17:33:23;4.00;99.90
41469;DHT22;27206;47.032;15.484;2023-02-28T17:35:49;4.00;99.90
41469;DHT22;27206;47.032;15.484;2023-02-28T17:38:19;4.00;99.90
41469;DHT22;27206;47.032;15.484;2023-02-28T17:40:45;4.00;99.90
41469;DHT22;27206;47.032;15.484;2023-02-28T17:43:11;3.90;99.90
41469;DHT22;27206;47.032;15.484;2023-02-28T17:45:37;3.90;99.90
41469;DHT22;27206;47.032;15.484;2023-02-28T17:48:03;3.90;99.90
41469;DHT22;27206;47.032;15.484;2023-02-28T17:50:28;3.90;99.90
41469;DHT22;27206;47.032;15.484;2023-02-28T17:52:54;3.90;99.90
41469;DHT22;27206;47.032;15.484;2023-02-28T17:55:19;3.80;99.90
41469;DHT22;27206;47.032;15.484;2023-02-28T17:57:45;3.80;99.90
41469;DHT22;27206;47.032;15.484;2023-02-28T18:00:13;3.70;99.90
41469;DHT22;27206;47.032;15.484;2023-02-28T18:02:39;3.80;99.90
41469;DHT22;27206;47.032;15.484;2023-02-28T18:05:05;3.80;99.90
41469;DHT22;27206;47.032;15.484;2023-02-28T18:07:31;3.70;99.90
41469;DHT22;27206;47.032;15.484;2023-02-28T18:09:56;3.80;99.90
41469;DHT22;27206;47.032;15.484;2023-02-28T18:12:22;3.70;99.90
41469;DHT22;27206;47.032;15.484;2023-02-28T18:14:48;3.80;99.90
41469;DHT22;27206;47.032;15.484;2023-02-28T18:17:14;3.80;99.90
41469;DHT22;27206;47.032;15.484;2023-02-28T18:19:39;3.80;99.90